Gradyville, Kentucky
Current Conditions -  °F | °C
As of 1:55 PM on Tuesday 21 Oct 2014 (Local Time) from KGLW Reporting Station
Scattered Clouds Scattered Clouds  
Wind Chill: 65°   Ceiling: Unl
Heat Index: 65°   Visibility: 10mi
Dew Point: 43°   Wind: 6mph
Humidity: 45%   Direction: 360°N
Pressure: 30.04"   Gusts: NA
Location:  37.06°N, 85.42°W
Report Text: KGLW 211855Z AUTO 36005KT 10SM SCT050 18/06 A3004 RMK AO2 T01820062
Loading
Personal Weather Stations






























Interactive Weather Map
Tropical Storm Tracking
New forecast layout! Learn more

10-Day Weather Forecast

Advertisements
Track Severe Weather on mobile